地図

経路データ

SID SEASON NUMBER BASIN SUBBASIN NAME ISO_TIME NATURE LAT LON WMO_WIND WMO_PRES WMO_AGENCY TRACK_TYPE DIST2LAND LANDFALL IFLAG USA_AGENCY USA_ATCF_ID USA_LAT USA_LON USA_RECORD USA_STATUS USA_WIND USA_PRES USA_SSHS USA_R34_NE USA_R34_SE USA_R34_SW USA_R34_NW USA_R50_NE USA_R50_SE USA_R50_SW USA_R50_NW USA_R64_NE USA_R64_SE USA_R64_SW USA_R64_NW USA_POCI USA_ROCI USA_RMW USA_EYE TOKYO_LAT TOKYO_LON TOKYO_GRADE TOKYO_WIND TOKYO_PRES TOKYO_R50_DIR TOKYO_R50_LONG TOKYO_R50_SHORT TOKYO_R30_DIR TOKYO_R30_LONG TOKYO_R30_SHORT TOKYO_LAND CMA_LAT CMA_LON CMA_CAT CMA_WIND CMA_PRES HKO_LAT HKO_LON HKO_CAT HKO_WIND HKO_PRES NEWDELHI_LAT NEWDELHI_LON NEWDELHI_GRADE NEWDELHI_WIND NEWDELHI_PRES NEWDELHI_CI NEWDELHI_DP NEWDELHI_POCI REUNION_LAT REUNION_LON REUNION_TYPE REUNION_WIND REUNION_PRES REUNION_TNUM REUNION_CI REUNION_RMW REUNION_R34_NE REUNION_R34_SE REUNION_R34_SW REUNION_R34_NW REUNION_R50_NE REUNION_R50_SE REUNION_R50_SW REUNION_R50_NW REUNION_R64_NE REUNION_R64_SE REUNION_R64_SW REUNION_R64_NW BOM_LAT BOM_LON BOM_TYPE BOM_WIND BOM_PRES BOM_TNUM BOM_CI BOM_RMW BOM_R34_NE BOM_R34_SE BOM_R34_SW BOM_R34_NW BOM_R50_NE BOM_R50_SE BOM_R50_SW BOM_R50_NW BOM_R64_NE BOM_R64_SE BOM_R64_SW BOM_R64_NW BOM_ROCI BOM_POCI BOM_EYE BOM_POS_METHOD BOM_PRES_METHOD NADI_LAT NADI_LON NADI_CAT NADI_WIND NADI_PRES WELLINGTON_LAT WELLINGTON_LON WELLINGTON_WIND WELLINGTON_PRES DS824_LAT DS824_LON DS824_STAGE DS824_WIND DS824_PRES TD9636_LAT TD9636_LON TD9636_STAGE TD9636_WIND TD9636_PRES TD9635_LAT TD9635_LON TD9635_WIND TD9635_PRES TD9635_ROCI NEUMANN_LAT NEUMANN_LON NEUMANN_CLASS NEUMANN_WIND NEUMANN_PRES MLC_LAT MLC_LON MLC_CLASS MLC_WIND MLC_PRES USA_GUST BOM_GUST BOM_GUST_PER REUNION_GUST REUNION_GUST_PER USA_SEAHGT USA_SEARAD_NE USA_SEARAD_SE USA_SEARAD_SW USA_SEARAD_NW STORM_SPEED STORM_DIR
1997018S10074 1997 6 SI MM ILETTA 1997-01-17 18:00:00 TS -9.90000 74.0000 main 1913 1913 O___________O_ jtwc_sh SH211997 -9.90000 74.0000 25 -1 -9.90000 74.0000 TC 25 2 241
1997018S10074 1997 6 SI MM ILETTA 1997-01-17 21:00:00 TS -9.95000 73.9125 main 1917 1917 P___________P_ SH211997 -9.95000 73.9125 25 -1 -9.95000 73.9125 TC 25 2 243
1997018S10074 1997 6 SI MM ILETTA 1997-01-18 00:00:00 TS -10.0000 73.8000 main 1932 1932 O___________O_ jtwc_sh SH211997 -10.0000 73.8000 25 -1 -10.0000 73.8000 TC 25 3 249
1997018S10074 1997 6 SI MM ILETTA 1997-01-18 03:00:00 TS -10.0500 73.6500 main 1946 1946 P___________P_ SH211997 -10.0500 73.6500 25 -1 -10.0500 73.6500 TC 25 3 251
1997018S10074 1997 6 SI MM ILETTA 1997-01-18 06:00:00 TS -10.1000 73.5000 main 1955 1955 O___________O_ jtwc_sh SH211997 -10.1000 73.5000 25 -1 -10.1000 73.5000 TC 25 3 248
1997018S10074 1997 6 SI MM ILETTA 1997-01-18 09:00:00 TS -10.1500 73.3925 main 1959 1959 P___________P_ SH211997 -10.1500 73.3925 25 -1 -10.1500 73.3925 TC 25 2 243
1997018S10074 1997 6 SI MM ILETTA 1997-01-18 12:00:00 TS -10.2000 73.3000 main 1974 1974 O___________O_ jtwc_sh SH211997 -10.2000 73.3000 25 -1 -10.2000 73.3000 TC 25 2 242
1997018S10074 1997 6 SI MM ILETTA 1997-01-18 15:00:00 TS -10.2500 73.2000 main 1978 1978 P___________P_ SH211997 -10.2500 73.2000 25 -1 -10.2500 73.2000 TC 25 2 243
1997018S10074 1997 6 SI MM ILETTA 1997-01-18 18:00:00 TS -10.3000 73.1000 main 1981 1972 O___________O_ jtwc_sh SH211997 -10.3000 73.1000 25 -1 -10.3000 73.1000 TC 25 2 244
1997018S10074 1997 6 SI MM ILETTA 1997-01-18 21:00:00 TS -10.3500 72.9925 main 1966 1957 P___________P_ SH211997 -10.3500 72.9925 25 -1 -10.3500 72.9925 TC 25 2 243
1997018S10074 1997 6 SI MM ILETTA 1997-01-19 00:00:00 TS -10.4000 72.9000 main 1957 1948 O___________O_ jtwc_sh SH211997 -10.4000 72.9000 25 -1 -10.4000 72.9000 TC 25 2 236
1997018S10074 1997 6 SI MM ILETTA 1997-01-19 03:00:00 TS -10.4500 72.8425 main 1948 1941 P___________P_ SH211997 -10.4500 72.8425 25 -1 -10.4500 72.8425 TC 25 1 223
1997018S10074 1997 6 SI MM ILETTA 1997-01-19 06:00:00 TS -10.5000 72.8000 main 1941 1941 O___________O_ jtwc_sh SH211997 -10.5000 72.8000 25 -1 -10.5000 72.8000 TC 25 1 217
1997018S10074 1997 6 SI MM ILETTA 1997-01-19 09:00:00 TS -10.5500 72.7575 main 1941 1926 P___________P_ SH211997 -10.5500 72.7575 25 -1 -10.5500 72.7575 TC 25 1 223
1997018S10074 1997 6 SI MM ILETTA 1997-01-19 12:00:00 TS -10.6000 72.7000 main 1926 1917 O___________O_ jtwc_sh SH211997 -10.6000 72.7000 25 -1 -10.6000 72.7000 TC 25 2 237
1997018S10074 1997 6 SI MM ILETTA 1997-01-19 15:00:00 TS -10.6500 72.6000 main 1911 1902 P___________P_ SH211997 -10.6500 72.6000 25 -1 -10.6500 72.6000 TC 25 2 243
1997018S10074 1997 6 SI MM ILETTA 1997-01-19 18:00:00 TS -10.7000 72.5000 main 1902 1895 O___________O_ jtwc_sh SH211997 -10.7000 72.5000 25 -1 -10.7000 72.5000 TC 25 2 234
1997018S10074 1997 6 SI MM ILETTA 1997-01-19 21:00:00 TS -10.7575 72.4500 main 1895 1886 P___________P_ SH211997 -10.7575 72.4500 25 -1 -10.7575 72.4500 TC 25 1 223
1997018S10074 1997 6 SI MM ILETTA 1997-01-20 00:00:00 TS -10.8000 72.4000 main 1886 1877 O___________O_ jtwc_sh SH211997 -10.8000 72.4000 25 -1 -10.8000 72.4000 TC 25 1 251
1997018S10074 1997 6 SI MM ILETTA 1997-01-20 03:00:00 TS -10.8075 72.3075 main 1877 1868 P___________P_ SH211997 -10.8075 72.3075 25 -1 -10.8075 72.3075 TC 25 2 270
1997018S10074 1997 6 SI MM ILETTA 1997-01-20 06:00:00 TS -10.8000 72.2000 main 1868 1860 O___________O_ jtwc_sh SH211997 -10.8000 72.2000 25 -1 -10.8000 72.2000 TC 25 2 272
1997018S10074 1997 6 SI MM ILETTA 1997-01-20 09:00:00 TS -10.8000 72.1000 main 1860 1851 P___________P_ SH211997 -10.8000 72.1000 25 -1 -10.8000 72.1000 TC 25 2 270
1997018S10074 1997 6 SI MM ILETTA 1997-01-20 12:00:00 TS -10.8000 72.0000 main 1851 1842 O___________O_ jtwc_sh SH211997 -10.8000 72.0000 25 -1 -10.8000 72.0000 TC 25 2 270
1997018S10074 1997 6 SI MM ILETTA 1997-01-20 15:00:00 TS -10.8000 71.9000 main 1842 1833 P___________P_ SH211997 -10.8000 71.9000 25 -1 -10.8000 71.9000 TC 25 2 270
1997018S10074 1997 6 SI MM ILETTA 1997-01-20 18:00:00 TS -10.8000 71.8000 main 1833 1824 O___________O_ jtwc_sh SH211997 -10.8000 71.8000 25 -1 -10.8000 71.8000 TC 25 2 270
1997018S10074 1997 6 SI MM ILETTA 1997-01-20 21:00:00 TS -10.8000 71.7000 main 1824 1815 P___________P_ SH211997 -10.8000 71.7000 20 -1 -10.8000 71.7000 TC 20 2 270
1997018S10074 1997 6 SI MM ILETTA 1997-01-21 00:00:00 TS -10.8000 71.6000 main 1815 1807 O___________O_ jtwc_sh SH211997 -10.8000 71.6000 15 -1 -10.8000 71.6000 TC 15 2 270
1997018S10074 1997 6 SI MM ILETTA 1997-01-21 03:00:00 TS -10.8000 71.5000 main 1807 1798 P___________P_ SH211997 -10.8000 71.5000 17 -1 -10.8000 71.5000 TC 17 2 270
1997018S10074 1997 6 SI MM ILETTA 1997-01-21 06:00:00 TS -10.8000 71.4000 main 1798 1789 O___________O_ jtwc_sh SH211997 -10.8000 71.4000 20 -1 -10.8000 71.4000 TC 20 2 270
1997018S10074 1997 6 SI MM ILETTA 1997-01-21 09:00:00 TS -10.8000 71.3000 main 1789 1781 P___________P_ SH211997 -10.8000 71.3000 20 -1 -10.8000 71.3000 TC 20 2 270
1997018S10074 1997 6 SI MM ILETTA 1997-01-21 12:00:00 TS -10.8000 71.2000 main 1781 1772 O___________O_ jtwc_sh SH211997 -10.8000 71.2000 20 -1 -10.8000 71.2000 TC 20 2 270
1997018S10074 1997 6 SI MM ILETTA 1997-01-21 15:00:00 TS -10.8000 71.1000 main 1772 1763 P___________P_ SH211997 -10.8000 71.1000 20 -1 -10.8000 71.1000 TC 20 2 270
1997018S10074 1997 6 SI MM ILETTA 1997-01-21 18:00:00 TS -10.8000 71.0000 main 1763 1755 O___________O_ jtwc_sh SH211997 -10.8000 71.0000 20 -1 -10.8000 71.0000 TC 20 2 272
1997018S10074 1997 6 SI MM ILETTA 1997-01-21 21:00:00 TS -10.7925 70.9075 main 1755 1746 P___________P_ SH211997 -10.7925 70.9075 20 -1 -10.7925 70.9075 TC 20 2 270
1997018S10074 1997 6 SI MM ILETTA 1997-01-22 00:00:00 TS -10.8000 70.8000 main 1746 1737 O___________O_ jtwc_sh SH211997 -10.8000 70.8000 20 -1 -10.8000 70.8000 TC 20 3 257
1997018S10074 1997 6 SI MM ILETTA 1997-01-22 03:00:00 TS -10.8500 70.6500 main 1731 1713 P___________P_ SH211997 -10.8500 70.6500 22 -1 -10.8500 70.6500 TC 22 3 251
1997018S10074 1997 6 SI MM ILETTA 1997-01-22 06:00:00 TS -10.9000 70.5000 main 1713 1705 O___________O_ jtwc_sh SH211997 -10.9000 70.5000 25 -1 -10.9000 70.5000 TC 25 3 259
1997018S10074 1997 6 SI MM ILETTA 1997-01-22 09:00:00 TS -10.9000 70.4000 main 1705 1696 P___________P_ SH211997 -10.9000 70.4000 25 -1 -10.9000 70.4000 TC 25 2 270
1997018S10074 1997 6 SI MM ILETTA 1997-01-22 12:00:00 TS -10.9000 70.3000 main 1696 1688 O___________O_ jtwc_sh SH211997 -10.9000 70.3000 25 -1 -10.9000 70.3000 TC 25 3 258
1997018S10074 1997 6 SI MM ILETTA 1997-01-22 15:00:00 TS -10.9500 70.1500 main 1681 1664 P___________P_ SH211997 -10.9500 70.1500 25 -1 -10.9500 70.1500 TC 25 3 251
1997018S10074 1997 6 SI MM ILETTA 1997-01-22 18:00:00 TS -11.0000 70.0000 20 1004 reunion main 1664 1655 O___________O_ jtwc_sh SH211997 -11.0000 70.0000 25 -1 -11.0000 70.0000 TC 25 3 257
1997018S10074 1997 6 SI MM ILETTA 1997-01-22 21:00:00 TS -11.0075 69.9000 main 1655 1647 P___________P_ SH211997 -11.0075 69.9000 27 -1 -11.0075 69.9000 TC 27 2 270
1997018S10074 1997 6 SI MM ILETTA 1997-01-23 00:00:00 TS -11.0000 69.8000 20 1002 reunion main 1647 1639 O___________O_ jtwc_sh SH211997 -11.0000 69.8000 30 -1 -11.0000 69.8000 TC 30 2 274
1997018S10074 1997 6 SI MM ILETTA 1997-01-23 03:00:00 TS -10.9925 69.6650 main 1639 1622 P___________P_ SH211997 -10.9925 69.6650 30 -1 -10.9925 69.6650 TC 30 3 270
1997018S10074 1997 6 SI MM ILETTA 1997-01-23 06:00:00 TS -11.0000 69.5000 20 1000 reunion main 1622 1605 O___________O_ jtwc_sh SH211997 -11.0000 69.5000 30 -1 -11.0000 69.5000 TC 30 4 262
1997018S10074 1997 6 SI MM ILETTA 1997-01-23 09:00:00 TS -11.0425 69.3000 main 1605 1581 P___________P_ SH211997 -11.0425 69.3000 32 -1 -11.0425 69.3000 TC 32 4 256
1997018S10074 1997 6 SI MM ILETTA 1997-01-23 12:00:00 TS -11.1000 69.1000 30 995 reunion main 1581 1573 O___________O_ jtwc_sh SH211997 -11.1000 69.1000 35 0 -11.1000 69.1000 TC 35 4 254
1997018S10074 1997 6 SI MM ILETTA 1997-01-23 15:00:00 TS -11.1425 68.9425 main 1565 1549 P___________P_ SH211997 -11.1425 68.9425 35 0 -11.1425 68.9425 TC 35 3 251
1997018S10074 1997 6 SI MM ILETTA 1997-01-23 18:00:00 TS -11.2000 68.8000 30 995 reunion main 1549 1534 O___________O_ jtwc_sh SH211997 -11.2000 68.8000 35 0 -11.2000 68.8000 TC 35 3 242
1997018S10074 1997 6 SI MM ILETTA 1997-01-23 21:00:00 TS -11.2925 68.6500 main 1534 1510 P___________P_ SH211997 -11.2925 68.6500 35 0 -11.2925 68.6500 TC 35 4 236
1997018S10074 1997 6 SI MM ILETTA 1997-01-24 00:00:00 TS -11.4000 68.5000 30 995 reunion main 1510 1494 O___________O_ jtwc_sh SH211997 -11.4000 68.5000 35 0 -11.4000 68.5000 TC 35 4 236
1997018S10074 1997 6 SI MM ILETTA 1997-01-24 03:00:00 TS -11.5000 68.3425 main 1486 1471 P___________P_ SH211997 -11.5000 68.3425 35 0 -11.5000 68.3425 TC 35 4 236
1997018S10074 1997 6 SI MM ILETTA 1997-01-24 06:00:00 TS -11.6000 68.2000 30 995 reunion main 1471 1455 O___________O_ jtwc_sh SH211997 -11.6000 68.2000 35 0 -11.6000 68.2000 TC 35 3 231
1997018S10074 1997 6 SI MM ILETTA 1997-01-24 09:00:00 TS -11.7000 68.0925 main 1455 1439 P___________P_ SH211997 -11.7000 68.0925 37 0 -11.7000 68.0925 TC 37 3 225
1997018S10074 1997 6 SI MM ILETTA 1997-01-24 12:00:00 TS -11.8000 68.0000 30 995 reunion main 1439 1424 O___________O_ jtwc_sh SH211997 -11.8000 68.0000 40 0 -11.8000 68.0000 TC 40 3 228
1997018S10074 1997 6 SI MM ILETTA 1997-01-24 15:00:00 TS -11.8850 67.8850 main 1424 1408 P___________P_ SH211997 -11.8850 67.8850 42 0 -11.8850 67.8850 TC 42 3 224
1997018S10074 1997 6 SI MM ILETTA 1997-01-24 18:00:00 TS -12.0000 67.8000 30 995 reunion main 1408 1394 O___________O_ jtwc_sh SH211997 -12.0000 67.8000 45 0 -12.0000 67.8000 TC 45 3 201
1997018S10074 1997 6 SI MM ILETTA 1997-01-24 21:00:00 TS -12.1925 67.7625 main 1394 1372 P___________P_ SH211997 -12.1925 67.7625 47 0 -12.1925 67.7625 TC 47 5 178
1997018S10074 1997 6 SI MM ILETTA 1997-01-25 00:00:00 TS -12.5111 67.8222 35 992 reunion main 1372 1365 O____O______O_ jtwc_sh SH211997 -12.4000 67.8000 50 0 -13.4000 68.0000 3 35 992 3.00000 3.00000 -12.4000 67.8000 TC 50 6 158
1997018S10074 1997 6 SI MM ILETTA 1997-01-25 03:00:00 TS -12.7085 67.9720 main 1375 1368 P____P______P_ SH211997 -12.5575 67.9275 52 0 -13.3325 68.1475 3 35 992 -12.5575 67.9275 TC 52 5 138
1997018S10074 1997 6 SI MM ILETTA 1997-01-25 06:00:00 TS -12.8636 68.1545 35 992 reunion main 1378 1378 O____O______O_ jtwc_sh SH211997 -12.7000 68.1000 55 0 -13.3000 68.3000 3 35 992 2.50000 3.00000 -12.7000 68.1000 TC 55 5 131
1997018S10074 1997 6 SI MM ILETTA 1997-01-25 09:00:00 TS -13.0092 68.3242 main 1380 1380 P____P______P_ SH211997 -12.8500 68.2575 55 0 -13.3275 68.4575 3 35 992 -12.8500 68.2575 TC 55 4 132
1997018S10074 1997 6 SI MM ILETTA 1997-01-25 12:00:00 TS -13.1333 68.4667 35 992 reunion main 1391 1385 O____O______O_ jtwc_sh SH211997 -13.0000 68.4000 55 0 -13.4000 68.6000 3 35 992 2.50000 3.00000 -13.0000 68.4000 TC 55 3 136
1997018S10074 1997 6 SI MM ILETTA 1997-01-25 15:00:00 TS -13.2541 68.5692 main 1387 1381 P____P______P_ SH211997 -13.1275 68.4926 55 0 -13.5075 68.7225 3 35 992 -13.1275 68.4926 TC 55 3 144
1997018S10074 1997 6 SI MM ILETTA 1997-01-25 18:00:00 TS -13.4000 68.6667 35 992 reunion main 1390 1383 O____O______O_ jtwc_sh SH211997 -13.3000 68.6000 55 0 -13.6000 68.8000 3 35 992 3.00000 3.00000 -13.3000 68.6000 TC 55 4 147
1997018S10074 1997 6 SI MM ILETTA 1997-01-25 21:00:00 TS -13.5800 68.7850 main 1386 1380 P____P______P_ SH211997 -13.5850 68.7849 55 0 -13.5700 68.7851 3 38 989 -13.5850 68.7849 TC 55 5 147
1997018S10074 1997 6 SI MM ILETTA 1997-01-26 00:00:00 TS -13.8000 68.9333 42 987 reunion main 1383 1381 O____O______O_ jtwc_sh SH211997 -13.9000 69.0000 55 0 -13.6000 68.8000 3 42 987 3.50000 3.50000 -13.9000 69.0000 TC 55 6 146
1997018S10074 1997 6 SI MM ILETTA 1997-01-26 03:00:00 TS -14.0516 69.1134 main 1384 1384 P____P______P_ SH211997 -14.1500 69.1926 57 0 -13.8550 68.9550 3 46 983 -14.1500 69.1926 TC 57 7 144
1997018S10074 1997 6 SI MM ILETTA 1997-01-26 06:00:00 TS -14.3333 69.3333 50 980 reunion main 1392 1390 O____O______O_ jtwc_sh SH211997 -14.4000 69.4000 60 0 -14.2000 69.2000 3 50 980 4.00000 4.00000 -14.4000 69.4000 TC 60 7 141
1997018S10074 1997 6 SI MM ILETTA 1997-01-26 09:00:00 TS -14.6283 69.5925 main 1404 1398 P____P______P_ SH211997 -14.6850 69.6500 62 0 -14.5150 69.4775 3 52 977 -14.6850 69.6500 TC 62 8 139
1997018S10074 1997 6 SI MM ILETTA 1997-01-26 12:00:00 TS -14.9333 69.8667 55 975 reunion main 1417 1412 O____O______O_ jtwc_sh SH211997 -15.0000 69.9000 65 1 -14.8000 69.8000 3 55 975 4.00000 4.00000 -15.0000 69.9000 TC 65 8 139
1997018S10074 1997 6 SI MM ILETTA 1997-01-26 15:00:00 TS -15.2308 70.1267 main 1421 1421 P____P______P_ SH211997 -15.3425 70.1150 67 1 -15.0075 70.1501 3 55 975 -15.3425 70.1150 TC 67 8 141
1997018S10074 1997 6 SI MM ILETTA 1997-01-26 18:00:00 TS -15.5333 70.3667 55 975 reunion main 1436 1432 O____O______O_ jtwc_sh SH211997 -15.7000 70.3000 70 1 -15.2000 70.5000 3 55 975 3.50000 4.00000 -15.7000 70.3000 TC 70 8 145
1997018S10074 1997 6 SI MM ILETTA 1997-01-26 21:00:00 TS -15.8600 70.5917 main 1439 1439 P____P______P_ SH211997 -16.0725 70.4650 72 1 -15.4350 70.8449 3 52 977 -16.0725 70.4650 TC 72 7 149
1997018S10074 1997 6 SI MM ILETTA 1997-01-27 00:00:00 TS -16.1667 70.7667 50 980 reunion main 1446 1439 O____O______O_ jtwc_sh SH211997 -16.4000 70.6000 75 1 -15.7000 71.1000 3 50 980 3.00000 4.00000 -16.4000 70.6000 TC 75 6 156
1997018S10074 1997 6 SI MM ILETTA 1997-01-27 03:00:00 TS -16.4275 70.8601 main 1449 1441 P____P______P_ SH211997 -16.6375 70.7001 72 1 -16.0074 71.1802 3 46 983 -16.6375 70.7001 TC 72 5 161
1997018S10074 1997 6 SI MM ILETTA 1997-01-27 06:00:00 TS -16.6333 70.9333 42 987 reunion main 1441 1438 O____O______O_ jtwc_sh SH211997 -16.8000 70.8000 70 1 -16.3000 71.2000 3 42 987 2.50000 3.50000 -16.8000 70.8000 TC 70 4 153
1997018S10074 1997 6 SI MM ILETTA 1997-01-27 09:00:00 TS -16.7942 71.0592 main 1455 1451 P____P______P_ SH211997 -16.9225 70.9425 65 1 -16.5375 71.2925 3 38 989 -16.9225 70.9425 TC 65 4 136
1997018S10074 1997 6 SI MM ILETTA 1997-01-27 12:00:00 TS -16.9000 71.2000 35 992 reunion main 1462 1462 O____O______O_ jtwc_sh SH211997 -17.0000 71.1000 60 0 -16.7000 71.4000 3 35 992 2.00000 3.00000 -17.0000 71.1000 TC 60 3 124
1997018S10074 1997 6 SI MM ILETTA 1997-01-27 15:00:00 TS -16.9725 71.3333 main 1468 1468 P____P______P_ SH211997 -17.0725 71.2500 55 0 -16.7725 71.5000 3 32 993 -17.0725 71.2500 TC 55 3 111
1997018S10074 1997 6 SI MM ILETTA 1997-01-27 18:00:00 TS -17.0000 71.4667 30 995 reunion main 1489 1489 O____O______O_ jtwc_sh SH211997 -17.1000 71.4000 50 0 -16.8000 71.6000 2 30 995 2.00000 2.50000 -17.1000 71.4000 TC 50 3 96
1997018S10074 1997 6 SI MM ILETTA 1997-01-27 21:00:00 TS -16.9983 71.6000 main 1499 1499 P____P______P_ SH211997 -17.0725 71.5500 45 0 -16.8500 71.7000 2 27 997 -17.0725 71.5500 TC 45 3 83
1997018S10074 1997 6 SI MM ILETTA 1997-01-28 00:00:00 TS -16.9667 71.7333 25 1000 reunion main 1509 1509 O____O______O_ jtwc_sh SH211997 -17.0000 71.7000 40 0 -16.9000 71.8000 2 25 1000 2.00000 2.00000 -17.0000 71.7000 TC 40 3 74
1997018S10074 1997 6 SI MM ILETTA 1997-01-28 03:00:00 TS -16.9217 71.8767 main 1533 1533 P____P______P_ SH211997 -16.9075 71.8650 35 0 -16.9500 71.9000 2 26 998 -16.9075 71.8650 TC 35 3 69
1997018S10074 1997 6 SI MM ILETTA 1997-01-28 06:00:00 TS -16.8667 72.0000 28 997 reunion main 1543 1543 O____O______O_ jtwc_sh SH211997 -16.8000 72.0000 30 -1 -17.0000 72.0000 2 28 997 2.50000 2.50000 -16.8000 72.0000 TC 30 2 65
1997018S10074 1997 6 SI MM ILETTA 1997-01-28 09:00:00 TS -16.8267 72.0891 main 1556 1556 P____P______P_ SH211997 -16.7075 72.0725 30 -1 -17.0650 72.1225 2 28 997 -16.7075 72.0725 TC 30 2 51
1997018S10074 1997 6 SI MM ILETTA 1997-01-28 12:00:00 TS -16.7667 72.1333 28 997 reunion main 1556 1556 O____O______O_ jtwc_sh SH211997 -16.6000 72.1000 30 -1 -17.1000 72.2000 2 28 997 2.00000 2.50000 -16.6000 72.1000 TC 30 2 20
1997018S10074 1997 6 SI MM ILETTA 1997-01-28 15:00:00 TS -16.6600 72.1467 main 1560 1560 P____P______P_ SH211997 -16.4575 72.1225 30 -1 -17.0650 72.1950 2 28 997 -16.4575 72.1225 TC 30 2 349
1997018S10074 1997 6 SI MM ILETTA 1997-01-28 18:00:00 TS -16.5333 72.1000 28 997 reunion main 1566 1556 O____O______O_ jtwc_sh SH211997 -16.3000 72.1000 30 -1 -17.0000 72.1000 2 28 997 2.50000 2.50000 -16.3000 72.1000 TC 30 3 325
1997018S10074 1997 6 SI MM ILETTA 1997-01-28 21:00:00 TS -16.4342 71.9842 main 1560 1543 P____P______P_ SH211997 -16.1500 72.0225 30 -1 -17.0026 71.9076 2 28 997 -16.1500 72.0225 TC 30 3 312
1997018S10074 1997 6 SI MM ILETTA 1997-01-29 00:00:00 TS -16.3000 71.8333 28 997 reunion main 1543 1537 O____O______O_ jtwc_sh SH211997 -16.0000 71.9000 30 -1 -16.9000 71.7000 2 28 997 2.00000 2.50000 -16.0000 71.9000 TC 30 4 322
1997018S10074 1997 6 SI MM ILETTA 1997-01-29 03:00:00 TS -16.0842 71.6975 main 1541 1534 P____P______P_ SH211997 -15.8500 71.7575 30 -1 -16.5525 71.5774 2 28 997 -15.8500 71.7575 TC 30 5 331
1997018S10074 1997 6 SI MM ILETTA 1997-01-29 06:00:00 TS -15.8333 71.5667 28 997 reunion main 1542 1532 O____O______O_ jtwc_sh SH211997 -15.7000 71.6000 30 -1 -16.1000 71.5000 2 28 997 2.00000 2.50000 -15.7000 71.6000 TC 30 5 334
1997018S10074 1997 6 SI MM ILETTA 1997-01-29 09:00:00 TS -15.6000 71.4576 main 1541 1529 P____P______P_ SH211997 -15.5575 71.4500 27 -1 -15.6849 71.4727 2 26 998 -15.5575 71.4500 TC 27 5 334
1997018S10074 1997 6 SI MM ILETTA 1997-01-29 12:00:00 TS -15.3667 71.3333 25 1000 reunion main 1529 1528 O____O______O_ jtwc_sh SH211997 -15.4000 71.3000 25 -1 -15.3000 71.4000 2 25 1000 2.00000 2.00000 -15.4000 71.3000 TC 25 5 329
1997018S10074 1997 6 SI MM ILETTA 1997-01-29 15:00:00 TS -15.1383 71.1675 main 1533 1518 P____P______P_ SH211997 -15.2225 71.1651 25 -1 -14.9701 71.1724 2 25 1000 -15.2225 71.1651 TC 25 6 323
1997018S10074 1997 6 SI MM ILETTA 1997-01-29 18:00:00 TS -14.9000 70.9667 25 1000 reunion main 1523 1508 O____O______O_ jtwc_sh SH211997 -15.0000 71.0000 25 -1 -14.7000 70.9000 2 25 1000 1.50000 2.00000 -15.0000 71.0000 TC 25 7 320
1997018S10074 1997 6 SI MM ILETTA 1997-01-29 21:00:00 TS -14.6401 70.7399 main 1509 1500 P____P______P_ SH211997 -14.7176 70.7698 22 -1 -14.4850 70.6800 2 22 1001 -14.7176 70.7698 TC 22 7 320
1997018S10074 1997 6 SI MM ILETTA 1997-01-30 00:00:00 TS -14.3667 70.5000 20 1002 reunion main 1500 O____O______O_ jtwc_sh SH211997 -14.4000 70.5000 20 -1 -14.3000 70.5000 6 20 1002 1.50000 2.00000 -14.4000 70.5000 TC 20 7 320

IBTrACS Databaseについて

本データベースは、米国NOAAが公開する1842年以降の世界の熱帯低気圧のベストトラックデータアーカイブInternational Best Track Archive for Climate Stewardship (IBTrACS)を、ウェブで閲覧しやすい形式に変換したものです。

最終更新日:2021-12-03